createdAt,value
2024-01-06T00:01:25.750Z,75.58
2024-01-06T00:04:38.256Z,75.48
2024-01-06T00:07:29.765Z,75.50
2024-01-06T00:10:23.607Z,75.34
2024-01-06T00:13:15.376Z,75.45
2024-01-06T00:16:05.352Z,75.46
2024-01-06T00:18:54.927Z,75.64
2024-01-06T00:21:45.875Z,75.55
2024-01-06T00:24:36.795Z,75.67
2024-01-06T00:27:29.404Z,75.63
2024-01-06T00:30:18.832Z,75.68
2024-01-06T00:33:13.802Z,75.70
2024-01-06T00:36:04.073Z,75.76
2024-01-06T00:38:53.214Z,75.78
2024-01-06T00:41:43.057Z,75.64
2024-01-06T00:44:35.567Z,75.60
2024-01-06T00:47:25.316Z,75.63
2024-01-06T00:50:23.644Z,75.57
2024-01-06T00:53:13.403Z,75.77
2024-01-06T00:56:07.308Z,75.72
2024-01-06T00:59:07.971Z,75.69
2024-01-06T01:01:58.664Z,75.70
2024-01-06T01:04:42.363Z,75.67
2024-01-06T01:07:31.799Z,75.67
2024-01-06T01:10:24.649Z,75.66
2024-01-06T01:13:14.007Z,75.69
2024-01-06T01:16:06.132Z,75.87
2024-01-06T01:18:58.758Z,75.81
2024-01-06T01:21:55.992Z,75.68
2024-01-06T01:24:45.250Z,75.74
2024-01-06T01:27:37.006Z,75.82
2024-01-06T01:30:40.658Z,75.80
2024-01-06T01:33:34.442Z,75.94
2024-01-06T01:36:29.505Z,75.95
2024-01-06T01:39:18.987Z,75.74
2024-01-06T01:42:17.403Z,75.83
2024-01-06T01:44:59.551Z,75.82
2024-01-06T01:47:56.086Z,75.82
2024-01-06T01:50:47.613Z,75.77
2024-01-06T01:53:37.796Z,75.84
2024-01-06T01:56:34.583Z,75.92
2024-01-06T01:59:23.595Z,75.83
2024-01-06T02:03:05.438Z,75.80
2024-01-06T02:05:39.643Z,75.81
2024-01-06T02:08:30.493Z,75.98
2024-01-06T02:11:22.890Z,75.85
2024-01-06T02:14:12.236Z,75.92
2024-01-06T02:17:02.085Z,75.95
2024-01-06T02:19:51.416Z,75.91
2024-01-06T02:22:41.171Z,75.99
2024-01-06T02:25:32.288Z,75.89
2024-01-06T02:28:23.763Z,75.87
2024-01-06T02:31:16.487Z,75.97
2024-01-06T02:34:08.920Z,76.13
2024-01-06T02:37:06.842Z,76.01
2024-01-06T02:39:58.986Z,76.01
2024-01-06T02:42:51.328Z,75.96
2024-01-06T02:45:45.002Z,76.07
2024-01-06T02:48:34.498Z,76.07
2024-01-06T02:51:25.556Z,76.08
2024-01-06T02:54:21.149Z,76.08
2024-01-06T02:57:09.332Z,76.11
2024-01-06T03:00:02.229Z,76.12
2024-01-06T03:02:51.775Z,76.15
2024-01-06T03:05:43.265Z,76.23
2024-01-06T03:08:37.228Z,76.20
2024-01-06T03:11:16.908Z,76.04
2024-01-06T03:14:07.266Z,76.11
2024-01-06T03:16:59.305Z,76.13
2024-01-06T03:19:49.129Z,76.23
2024-01-06T03:22:39.595Z,76.31
2024-01-06T03:25:32.244Z,76.24
2024-01-06T03:28:22.213Z,76.21
2024-01-06T03:31:13.182Z,76.21
2024-01-06T03:35:04.941Z,76.22
2024-01-06T03:37:14.774Z,76.19
2024-01-06T03:40:10.134Z,76.25
2024-01-06T03:43:02.181Z,76.32
2024-01-06T03:45:51.652Z,76.23
2024-01-06T03:48:41.390Z,76.23
2024-01-06T03:51:38.475Z,76.39
2024-01-06T03:54:27.957Z,76.34
2024-01-06T03:57:19.624Z,76.21
2024-01-06T04:00:28.807Z,76.28
2024-01-06T04:03:22.406Z,76.24
2024-01-06T04:06:12.044Z,76.18
2024-01-06T04:09:02.609Z,76.28
2024-01-06T04:12:02.805Z,76.25
2024-01-06T04:14:52.362Z,76.32
2024-01-06T04:17:41.816Z,76.33
2024-01-06T04:20:33.678Z,76.20
2024-01-06T04:23:26.102Z,76.18
2024-01-06T04:26:19.523Z,76.31
2024-01-06T04:29:09.082Z,76.36
2024-01-06T04:32:00.960Z,76.26
2024-01-06T04:34:51.648Z,76.15
2024-01-06T04:37:41.319Z,76.28
2024-01-06T04:40:32.424Z,76.26
2024-01-06T04:43:22.797Z,76.28
2024-01-06T04:46:40.720Z,76.24
2024-01-06T04:49:34.896Z,76.27
2024-01-06T04:52:24.179Z,76.20
2024-01-06T04:55:13.368Z,76.23
2024-01-06T04:58:02.864Z,76.32
2024-01-06T05:00:54.095Z,76.37
2024-01-06T05:03:32.849Z,76.30
2024-01-06T05:06:52.244Z,76.31
2024-01-06T05:09:41.397Z,76.30
2024-01-06T05:12:36.910Z,76.38
2024-01-06T05:15:26.347Z,76.37
2024-01-06T05:18:15.718Z,76.36
2024-01-06T05:21:05.820Z,76.31
2024-01-06T05:23:55.392Z,76.36
2024-01-06T05:26:44.715Z,76.27
2024-01-06T05:29:35.413Z,76.30
2024-01-06T05:32:27.245Z,76.34
2024-01-06T05:35:17.619Z,76.30
2024-01-06T05:38:16.017Z,76.28
2024-01-06T05:41:07.768Z,76.23
2024-01-06T05:43:59.016Z,76.36
2024-01-06T05:46:52.121Z,76.42
2024-01-06T05:49:44.637Z,76.30
2024-01-06T05:52:34.062Z,76.34
2024-01-06T05:55:42.804Z,76.28
2024-01-06T05:58:32.328Z,76.34
2024-01-06T06:01:23.878Z,76.28
2024-01-06T06:04:59.869Z,76.44
2024-01-06T06:07:30.395Z,76.53
2024-01-06T06:10:22.577Z,76.47
2024-01-06T06:13:14.969Z,76.40
2024-01-06T06:16:06.014Z,76.51
2024-01-06T06:19:19.950Z,76.47
2024-01-06T06:22:10.340Z,76.43
2024-01-06T06:25:11.953Z,76.50
2024-01-06T06:28:17.402Z,76.55
2024-01-06T06:31:30.398Z,76.60
2024-01-06T06:34:27.028Z,76.61
2024-01-06T06:37:16.885Z,76.61
2024-01-06T06:40:09.116Z,76.63
2024-01-06T06:42:58.288Z,76.61
2024-01-06T06:45:47.870Z,76.64
2024-01-06T06:48:37.156Z,76.50
2024-01-06T06:52:16.784Z,76.61
2024-01-06T06:54:43.603Z,76.64
2024-01-06T06:57:33.266Z,76.51
2024-01-06T07:00:45.636Z,76.58
2024-01-06T07:03:35.462Z,76.64
2024-01-06T07:06:32.956Z,76.80
2024-01-06T07:09:24.008Z,76.67
2024-01-06T07:12:20.133Z,76.64
2024-01-06T07:15:11.948Z,76.70
2024-01-06T07:18:01.229Z,76.65
2024-01-06T07:20:53.387Z,76.61
2024-01-06T07:23:43.663Z,76.73
2024-01-06T07:26:35.643Z,76.72
2024-01-06T07:29:24.854Z,76.90
2024-01-06T07:32:14.596Z,76.75
2024-01-06T07:35:07.459Z,76.62
2024-01-06T07:37:57.959Z,76.74
2024-01-06T07:40:47.180Z,76.62
2024-01-06T07:43:36.641Z,76.77
2024-01-06T07:46:33.087Z,76.75
2024-01-06T07:49:11.595Z,76.71
2024-01-06T07:52:03.392Z,76.65
2024-01-06T07:54:55.456Z,76.68
2024-01-06T07:57:44.788Z,76.72
2024-01-06T08:00:45.854Z,76.76
2024-01-06T08:03:35.564Z,76.60
2024-01-06T08:06:34.701Z,76.70
2024-01-06T08:09:24.413Z,76.74
2024-01-06T08:12:13.084Z,76.74
2024-01-06T08:15:06.353Z,76.78
2024-01-06T08:17:59.026Z,76.73
2024-01-06T08:20:48.222Z,76.60
2024-01-06T08:23:37.820Z,76.63
2024-01-06T08:26:33.282Z,76.73
2024-01-06T08:29:29.216Z,76.77
2024-01-06T08:32:18.532Z,76.85
2024-01-06T08:35:10.722Z,76.80
2024-01-06T08:38:01.976Z,76.71
2024-01-06T08:40:52.246Z,76.92
2024-01-06T08:43:40.574Z,76.82
2024-01-06T08:46:53.703Z,76.84
2024-01-06T08:49:43.781Z,76.83
2024-01-06T08:52:32.430Z,76.85
2024-01-06T08:55:32.124Z,76.80
2024-01-06T08:58:14.052Z,76.75
2024-01-06T09:01:04.356Z,76.78
2024-01-06T09:04:00.619Z,76.76
2024-01-06T09:06:49.478Z,76.77
2024-01-06T09:09:38.227Z,76.86
2024-01-06T09:12:28.133Z,76.77
2024-01-06T09:15:16.871Z,76.70
2024-01-06T09:18:08.123Z,76.91
2024-01-06T09:21:00.410Z,76.82
2024-01-06T09:23:44.413Z,76.82
2024-01-06T09:26:37.174Z,76.75
2024-01-06T09:29:28.283Z,76.69
2024-01-06T09:32:17.484Z,76.71
2024-01-06T09:35:06.871Z,76.66
2024-01-06T09:37:51.714Z,76.68
2024-01-06T09:40:32.690Z,76.75
2024-01-06T09:43:36.803Z,76.74
2024-01-06T09:46:32.402Z,76.84
2024-01-06T09:49:24.744Z,76.79
2024-01-06T09:52:22.144Z,76.80
2024-01-06T09:55:12.047Z,76.75
2024-01-06T09:58:17.682Z,76.64
2024-01-06T10:00:59.793Z,76.64
2024-01-06T10:04:25.116Z,76.82
2024-01-06T10:07:14.344Z,76.75
2024-01-06T10:10:03.774Z,76.71
2024-01-06T10:12:54.206Z,76.64
2024-01-06T10:15:47.050Z,76.72
2024-01-06T10:18:36.423Z,76.93
2024-01-06T10:21:26.752Z,76.59
2024-01-06T10:24:36.200Z,76.70
2024-01-06T10:27:24.726Z,76.78
2024-01-06T10:30:15.131Z,76.64
2024-01-06T10:33:44.332Z,76.56
2024-01-06T10:36:34.052Z,76.77
2024-01-06T10:39:23.036Z,76.68
2024-01-06T10:42:15.521Z,76.67
2024-01-06T10:45:10.253Z,76.69
2024-01-06T10:47:56.157Z,76.66
2024-01-06T10:50:38.783Z,76.60
2024-01-06T10:53:37.348Z,76.77
2024-01-06T10:56:26.754Z,76.71
2024-01-06T10:59:15.871Z,76.75
2024-01-06T11:02:06.713Z,76.75
2024-01-06T11:04:55.315Z,76.74
2024-01-06T11:07:44.563Z,76.82
2024-01-06T11:10:33.929Z,76.82
2024-01-06T11:13:26.862Z,76.52
2024-01-06T11:17:25.641Z,76.71
2024-01-06T11:19:48.272Z,76.77
2024-01-06T11:22:40.533Z,76.77
2024-01-06T11:25:28.400Z,76.64
2024-01-06T11:28:18.980Z,76.72
2024-01-06T11:31:10.398Z,76.69
2024-01-06T11:34:17.331Z,76.60
2024-01-06T11:37:09.746Z,76.66
2024-01-06T11:39:57.107Z,76.60
2024-01-06T11:42:46.994Z,76.63
2024-01-06T11:45:42.483Z,76.67
2024-01-06T11:48:38.310Z,76.71
2024-01-06T11:51:26.995Z,76.69
2024-01-06T11:54:26.986Z,76.72
2024-01-06T11:57:06.478Z,76.87
2024-01-06T11:59:55.389Z,76.65
2024-01-06T12:03:10.722Z,76.94
2024-01-06T12:06:05.200Z,76.70
2024-01-06T12:09:05.597Z,76.64
2024-01-06T12:12:02.424Z,76.72
2024-01-06T12:14:50.537Z,76.83
2024-01-06T12:17:40.512Z,76.66
2024-01-06T12:20:32.518Z,76.76
2024-01-06T12:23:28.269Z,76.90
2024-01-06T12:26:17.474Z,76.71
2024-01-06T12:29:05.873Z,76.85
2024-01-06T12:31:54.422Z,76.81
2024-01-06T12:34:44.439Z,76.72
2024-01-06T12:37:34.315Z,76.74
2024-01-06T12:40:24.254Z,76.79
2024-01-06T12:43:23.859Z,76.79
2024-01-06T12:46:13.787Z,76.92
2024-01-06T12:49:04.675Z,76.79
2024-01-06T12:51:54.894Z,76.77
2024-01-06T12:54:46.419Z,76.78
2024-01-06T12:57:36.628Z,76.79
2024-01-06T13:00:24.986Z,76.70
2024-01-06T13:03:15.438Z,76.74
2024-01-06T13:06:04.045Z,76.72
2024-01-06T13:08:52.582Z,76.74
2024-01-06T13:11:39.685Z,76.85
2024-01-06T13:14:32.130Z,76.81
2024-01-06T13:17:20.516Z,76.74
2024-01-06T13:20:10.057Z,76.67
2024-01-06T13:23:00.682Z,76.77
2024-01-06T13:27:59.225Z,76.69
2024-01-06T13:30:52.067Z,76.71
2024-01-06T13:33:46.764Z,76.58
2024-01-06T13:36:41.325Z,76.71
2024-01-06T13:39:37.126Z,76.68
2024-01-06T13:42:32.198Z,76.74
2024-01-06T13:45:26.724Z,76.71
2024-01-06T13:48:20.260Z,76.79
2024-01-06T13:51:12.949Z,76.79
2024-01-06T13:54:14.223Z,76.77
2024-01-06T13:57:08.274Z,76.71
2024-01-06T14:00:08.906Z,76.66
2024-01-06T14:03:12.570Z,76.75
2024-01-06T14:06:08.940Z,76.75
2024-01-06T14:09:14.623Z,76.74
2024-01-06T14:11:59.707Z,76.76
2024-01-06T14:14:51.494Z,76.67
2024-01-06T14:17:51.343Z,76.72
2024-01-06T14:21:00.866Z,76.59
2024-01-06T14:23:55.147Z,76.80
2024-01-06T14:26:47.821Z,76.71
2024-01-06T14:29:40.951Z,76.62
2024-01-06T14:32:36.967Z,76.67
2024-01-06T14:35:52.901Z,76.60
2024-01-06T14:38:44.861Z,76.82
2024-01-06T14:41:39.526Z,76.67
2024-01-06T14:44:34.557Z,76.62
2024-01-06T14:47:28.722Z,76.56
2024-01-06T14:50:42.420Z,76.49
2024-01-06T14:53:39.648Z,76.56
2024-01-06T14:56:27.555Z,76.56
2024-01-06T14:59:21.186Z,76.50
2024-01-06T15:02:06.639Z,76.44
2024-01-06T15:05:02.237Z,76.63
2024-01-06T15:07:50.219Z,76.47
2024-01-06T15:10:43.021Z,76.57
2024-01-06T15:13:39.167Z,76.51
2024-01-06T15:16:34.828Z,76.55
2024-01-06T15:19:32.637Z,76.59
2024-01-06T15:22:25.708Z,76.53
2024-01-06T15:25:19.995Z,76.49
2024-01-06T15:28:21.572Z,76.39
2024-01-06T15:31:38.447Z,76.42
2024-01-06T15:34:35.110Z,76.42
2024-01-06T15:37:37.723Z,76.43
2024-01-06T15:40:39.547Z,76.25
2024-01-06T15:43:36.478Z,76.26
2024-01-06T15:47:30.745Z,76.35
2024-01-06T15:49:45.109Z,76.31
2024-01-06T15:52:38.505Z,76.32
2024-01-06T15:55:32.231Z,76.29
2024-01-06T15:58:48.877Z,76.22
2024-01-06T16:01:54.919Z,76.23
2024-01-06T16:04:49.085Z,76.27
2024-01-06T16:07:41.849Z,76.28
2024-01-06T16:10:42.941Z,76.17
2024-01-06T16:13:40.053Z,76.14
2024-01-06T16:16:37.345Z,76.17
2024-01-06T16:20:21.183Z,76.09
2024-01-06T16:22:43.896Z,76.02
2024-01-06T16:26:45.092Z,76.01
2024-01-06T16:28:58.743Z,75.97
2024-01-06T16:31:52.214Z,76.02
2024-01-06T16:34:43.890Z,75.97
2024-01-06T16:37:39.842Z,75.86
2024-01-06T16:40:33.473Z,75.82
2024-01-06T16:43:24.905Z,75.88
2024-01-06T16:47:15.153Z,75.95
2024-01-06T16:49:43.133Z,75.78
2024-01-06T16:52:39.399Z,75.86
2024-01-06T16:55:32.580Z,75.88
2024-01-06T16:58:42.356Z,75.93
2024-01-06T17:01:28.625Z,75.69
2024-01-06T17:04:21.518Z,75.73
2024-01-06T17:08:15.884Z,75.90
2024-01-06T17:10:33.802Z,75.79
2024-01-06T17:13:27.198Z,75.82
2024-01-06T17:16:53.277Z,75.71
2024-01-06T17:19:39.930Z,75.86
2024-01-06T17:22:46.504Z,75.72
2024-01-06T17:25:42.164Z,75.74
2024-01-06T17:28:57.713Z,75.80
2024-01-06T17:31:51.212Z,75.71
2024-01-06T17:34:46.650Z,75.75
2024-01-06T17:37:40.588Z,75.69
2024-01-06T17:40:26.669Z,75.66
2024-01-06T17:43:20.930Z,75.74
2024-01-06T17:46:10.048Z,75.73
2024-01-06T17:49:05.022Z,75.64
2024-01-06T17:51:58.500Z,75.59
2024-01-06T17:54:45.441Z,75.52
2024-01-06T17:57:40.694Z,75.55
2024-01-06T18:00:47.455Z,75.55
2024-01-06T18:03:32.242Z,75.43
2024-01-06T18:06:34.980Z,75.54
2024-01-06T18:09:11.143Z,75.57
2024-01-06T18:12:14.173Z,75.48
2024-01-06T18:14:57.891Z,75.37
2024-01-06T18:17:44.534Z,75.53
2024-01-06T18:20:50.272Z,75.40
2024-01-06T18:23:44.712Z,75.33
2024-01-06T18:26:28.824Z,75.30
2024-01-06T18:29:14.466Z,75.40
2024-01-06T18:32:13.464Z,75.39
2024-01-06T18:34:56.941Z,75.30
2024-01-06T18:37:42.778Z,75.40
2024-01-06T18:40:39.624Z,75.32
2024-01-06T18:43:41.150Z,75.30
2024-01-06T18:46:44.363Z,75.24
2024-01-06T18:49:27.142Z,75.18
2024-01-06T18:52:14.297Z,75.28
2024-01-06T18:55:08.285Z,75.16
2024-01-06T18:57:56.800Z,75.06
2024-01-06T19:00:50.658Z,75.25
2024-01-06T19:04:07.508Z,75.18
2024-01-06T19:07:00.509Z,75.15
2024-01-06T19:09:53.540Z,75.07
2024-01-06T19:12:49.746Z,75.19
2024-01-06T19:15:56.474Z,75.18
2024-01-06T19:18:47.618Z,75.06
2024-01-06T19:21:40.152Z,75.10
2024-01-06T19:24:43.419Z,74.98
2024-01-06T19:27:34.658Z,75.04
2024-01-06T19:30:28.893Z,75.07
2024-01-06T19:33:33.534Z,75.10
2024-01-06T19:36:35.613Z,74.90
2024-01-06T19:39:30.604Z,74.91
2024-01-06T19:42:14.468Z,74.84
2024-01-06T19:45:08.144Z,74.78
2024-01-06T19:48:28.225Z,74.95
2024-01-06T19:51:22.485Z,74.83
2024-01-06T19:54:17.760Z,74.89
2024-01-06T19:57:17.618Z,74.90
2024-01-06T20:00:15.487Z,74.87
2024-01-06T20:03:15.311Z,74.75
2024-01-06T20:06:21.056Z,74.79
2024-01-06T20:09:14.391Z,74.76
2024-01-06T20:12:13.283Z,74.82
2024-01-06T20:14:49.804Z,74.79
2024-01-06T20:17:42.582Z,74.91
2024-01-06T20:20:40.602Z,74.72
2024-01-06T20:23:43.580Z,74.78
2024-01-06T20:26:40.123Z,74.75
2024-01-06T20:29:27.880Z,74.59
2024-01-06T20:32:21.128Z,74.71
2024-01-06T20:35:14.282Z,74.66
2024-01-06T20:38:09.613Z,74.61
2024-01-06T20:41:02.535Z,74.57
2024-01-06T20:43:43.726Z,74.51
2024-01-06T20:46:41.092Z,74.54
2024-01-06T20:49:34.055Z,74.64
2024-01-06T20:52:28.336Z,74.47
2024-01-06T20:55:23.349Z,74.55
2024-01-06T20:58:18.245Z,74.59
2024-01-06T21:01:17.197Z,74.43
2024-01-06T21:04:00.898Z,74.39
2024-01-06T21:06:54.711Z,74.42
2024-01-06T21:09:49.561Z,74.49
2024-01-06T21:12:24.524Z,74.40
2024-01-06T21:15:09.825Z,74.51
2024-01-06T21:18:15.685Z,74.49
2024-01-06T21:20:59.703Z,74.49
2024-01-06T21:23:53.620Z,74.38
2024-01-06T21:26:49.358Z,74.37
2024-01-06T21:29:37.937Z,74.41
2024-01-06T21:32:38.452Z,74.38
2024-01-06T21:35:33.249Z,74.50
2024-01-06T21:38:25.936Z,74.35
2024-01-06T21:41:18.918Z,74.35
2024-01-06T21:44:15.575Z,74.32
2024-01-06T21:47:08.706Z,74.33
2024-01-06T21:50:03.470Z,74.31
2024-01-06T21:52:58.653Z,74.32
2024-01-06T21:55:36.518Z,74.44
2024-01-06T21:58:37.233Z,74.40
2024-01-06T22:01:48.987Z,74.35
2024-01-06T22:04:31.248Z,74.37
2024-01-06T22:07:35.065Z,74.23
2024-01-06T22:10:34.098Z,74.18
2024-01-06T22:13:18.900Z,74.23
2024-01-06T22:16:12.242Z,74.28
2024-01-06T22:19:39.905Z,74.19
2024-01-06T22:22:35.150Z,74.25
2024-01-06T22:25:29.116Z,74.10
2024-01-06T22:28:21.594Z,74.21
2024-01-06T22:31:25.762Z,74.14
2024-01-06T22:34:19.564Z,74.15
2024-01-06T22:37:09.988Z,74.23
2024-01-06T22:39:46.139Z,74.13
2024-01-06T22:42:38.777Z,74.18
2024-01-06T22:45:33.914Z,74.10
2024-01-06T22:48:27.027Z,74.09
2024-01-06T22:51:21.646Z,74.05
2024-01-06T22:54:18.498Z,74.01
2024-01-06T22:57:11.008Z,73.95
2024-01-06T23:00:17.685Z,73.97
2024-01-06T23:03:16.050Z,73.99
2024-01-06T23:06:09.582Z,74.03
2024-01-06T23:09:08.443Z,73.90
2024-01-06T23:12:07.959Z,73.78
2024-01-06T23:15:59.977Z,74.00
2024-01-06T23:18:18.114Z,73.74
2024-01-06T23:20:50.822Z,73.87
2024-01-06T23:23:24.079Z,73.93
2024-01-06T23:26:08.527Z,73.95
2024-01-06T23:28:50.018Z,73.80
2024-01-06T23:31:25.675Z,73.85
2024-01-06T23:34:26.739Z,73.92
2024-01-06T23:37:11.467Z,73.79
2024-01-06T23:40:00.114Z,73.86
2024-01-06T23:42:54.244Z,73.82
2024-01-06T23:45:58.501Z,73.74
2024-01-06T23:48:35.398Z,73.93
2024-01-06T23:54:30.822Z,73.88
2024-01-06T23:57:12.626Z,73.91
